Time;durP1;ratioP1;P1;durP2;ratioP2;P2;SDS_P1;SDS_P2;PMS_P1;PMS_P2;Temp;Humidity;BMP_temperature;BMP_pressure;BME280_temperature;BME280_humidity;BME280_pressure;Samples;Min_cycle;Max_cycle;Signal;HPM_P1;HPM_P2
2021/05/01 00:00:35;;;;;;;22.75;16.55;;;10.20;75.10;;;;;;5099926;28;27477;-58
2021/05/01 00:03:19;;;;;;;24.38;16.58;;;10.20;75.10;;;;;;5103261;28;27489;-57
2021/05/01 00:06:04;;;;;;;22.33;16.58;;;10.20;75.10;;;;;;5102466;28;27394;-58
2021/05/01 00:08:49;;;;;;;19.05;15.18;;;10.20;75.10;;;;;;5099809;28;27389;-58
2021/05/01 00:11:33;;;;;;;21.48;14.93;;;10.20;75.20;;;;;;5102925;28;27438;-58
2021/05/01 00:14:19;;;;;;;18.08;14.90;;;10.20;75.10;;;;;;5103423;28;27355;-58
2021/05/01 00:17:04;;;;;;;20.52;14.80;;;10.30;75.10;;;;;;5103221;28;27387;-58
2021/05/01 00:19:49;;;;;;;21.52;16.08;;;10.20;75.10;;;;;;5102380;28;27953;-59
2021/05/01 00:22:33;;;;;;;21.58;15.93;;;10.20;75.10;;;;;;5103121;28;27375;-58
2021/05/01 00:25:18;;;;;;;21.50;15.70;;;10.20;75.00;;;;;;5102270;28;27418;-57
2021/05/01 00:28:03;;;;;;;21.55;14.98;;;10.20;75.10;;;;;;5102599;28;27383;-58
2021/05/01 00:30:48;;;;;;;20.80;15.02;;;10.20;75.20;;;;;;5099599;28;27411;-57
2021/05/01 00:33:33;;;;;;;18.30;14.45;;;10.20;74.90;;;;;;5102602;28;27383;-59
2021/05/01 00:36:18;;;;;;;18.25;13.73;;;10.20;74.70;;;;;;5102735;28;27351;-57
2021/05/01 00:39:02;;;;;;;19.42;14.45;;;10.20;74.50;;;;;;5103631;27;27387;-63
2021/05/01 00:41:47;;;;;;;17.88;14.65;;;10.20;74.50;;;;;;5105405;28;27864;-58
2021/05/01 00:44:32;;;;;;;18.10;14.45;;;10.20;74.50;;;;;;5106065;28;27496;-58
2021/05/01 00:47:16;;;;;;;18.80;14.05;;;10.20;74.20;;;;;;5105761;28;27430;-58
2021/05/01 00:50:01;;;;;;;16.50;13.05;;;10.10;74.10;;;;;;5106034;28;27367;-58
2021/05/01 00:52:46;;;;;;;17.85;13.82;;;10.10;74.00;;;;;;5106050;28;27976;-58
2021/05/01 00:55:31;;;;;;;16.20;13.20;;;10.10;73.60;;;;;;5106189;28;27394;-58
2021/05/01 00:58:16;;;;;;;17.38;14.25;;;10.10;73.70;;;;;;5106266;28;27355;-58
2021/05/01 01:03:51;;;;;;;20.30;14.35;;;10.10;73.40;;;;;;5105842;28;27478;-58
2021/05/01 01:06:36;;;;;;;18.15;13.07;;;10.10;73.50;;;;;;5105671;28;27464;-58
2021/05/01 01:09:21;;;;;;;20.05;14.55;;;10.00;74.00;;;;;;5090839;28;27474;-58
2021/05/01 01:12:06;;;;;;;18.08;14.32;;;10.00;73.30;;;;;;5105532;28;27537;-58
2021/05/01 01:14:51;;;;;;;19.65;14.32;;;10.00;73.30;;;;;;5104775;28;27434;-57
2021/05/01 01:17:36;;;;;;;18.40;13.52;;;10.00;73.10;;;;;;5105484;28;27489;-57
2021/05/01 01:20:21;;;;;;;17.85;13.90;;;10.00;73.20;;;;;;5105839;28;27438;-57
2021/05/01 01:23:05;;;;;;;18.95;14.07;;;9.90;73.10;;;;;;5101662;28;27439;-58
2021/05/01 01:25:50;;;;;;;18.77;13.50;;;9.90;73.40;;;;;;5104745;28;27466;-58
2021/05/01 01:28:35;;;;;;;17.42;13.70;;;9.90;73.40;;;;;;5105253;28;27477;-58
2021/05/01 01:31:20;;;;;;;19.42;14.50;;;9.90;73.50;;;;;;5090546;28;27462;-63
2021/05/01 01:34:04;;;;;;;16.23;13.18;;;9.90;73.70;;;;;;5105319;28;27368;-58
2021/05/01 01:36:49;;;;;;;17.92;14.85;;;9.90;73.80;;;;;;5105247;28;27371;-58
2021/05/01 01:39:34;;;;;;;19.25;13.93;;;9.90;74.10;;;;;;5105268;28;27443;-57
2021/05/01 01:42:19;;;;;;;18.85;14.25;;;9.90;74.00;;;;;;5105533;28;26908;-58
2021/05/01 01:45:04;;;;;;;17.67;13.90;;;9.90;74.20;;;;;;5104549;28;27370;-59
2021/05/01 01:47:49;;;;;;;17.40;13.68;;;9.90;74.50;;;;;;5104327;28;27380;-57
2021/05/01 01:50:34;;;;;;;19.00;14.38;;;9.90;74.30;;;;;;5103746;27;27411;-58
2021/05/01 01:53:20;;;;;;;20.33;15.00;;;9.90;74.40;;;;;;5105052;28;27388;-58
2021/05/01 01:56:04;;;;;;;19.10;14.88;;;9.80;74.40;;;;;;5104256;28;27396;-58
2021/05/01 01:58:49;;;;;;;20.42;14.40;;;9.90;74.70;;;;;;5104789;28;27367;-58
2021/05/01 02:01:34;;;;;;;20.70;15.32;;;9.90;74.50;;;;;;5104947;28;27523;-58
2021/05/01 02:04:18;;;;;;;21.10;15.27;;;9.90;74.50;;;;;;5105242;28;27332;-57
2021/05/01 02:07:03;;;;;;;18.05;14.05;;;9.90;74.40;;;;;;5104298;28;27355;-58
2021/05/01 02:09:48;;;;;;;21.77;15.63;;;9.90;74.70;;;;;;5104792;28;27373;-57
2021/05/01 02:12:36;;;;;;;21.90;15.70;;;9.80;74.50;;;;;;5105018;28;27376;-57
2021/05/01 02:15:21;;;;;;;22.48;16.23;;;9.80;74.80;;;;;;5105019;28;27463;-57
2021/05/01 02:18:06;;;;;;;19.75;15.35;;;9.90;74.70;;;;;;5104738;28;27459;-58
2021/05/01 02:20:51;;;;;;;19.83;15.25;;;9.90;74.80;;;;;;5104320;28;27482;-58
2021/05/01 02:23:36;;;;;;;22.55;16.02;;;9.80;74.80;;;;;;5104488;28;27401;-58
2021/05/01 02:26:21;;;;;;;20.73;15.00;;;9.80;74.80;;;;;;5102308;28;27687;-58
2021/05/01 02:29:05;;;;;;;20.70;15.32;;;9.90;74.70;;;;;;5104624;28;27419;-58
2021/05/01 02:31:50;;;;;;;21.77;15.63;;;9.90;74.80;;;;;;5104764;28;27641;-58
2021/05/01 02:34:34;;;;;;;19.70;14.60;;;9.90;74.80;;;;;;5101076;28;27404;-58
2021/05/01 02:37:19;;;;;;;23.27;15.77;;;9.90;74.80;;;;;;5104422;28;27415;-57
2021/05/01 02:40:08;;;;;;;19.17;14.75;;;9.90;74.80;;;;;;5104569;28;27362;-58
2021/05/01 02:42:53;;;;;;;22.23;15.20;;;9.90;75.00;;;;;;5103307;28;27501;-58
2021/05/01 02:45:37;;;;;;;21.85;15.55;;;9.90;75.00;;;;;;5103519;28;27478;-58
2021/05/01 02:48:22;;;;;;;20.02;14.77;;;9.90;75.10;;;;;;5104244;28;27424;-58
2021/05/01 02:51:06;;;;;;;21.17;15.18;;;9.90;75.00;;;;;;5104002;28;27454;-58
2021/05/01 02:53:51;;;;;;;21.77;16.10;;;9.90;75.20;;;;;;5104081;28;27915;-57
2021/05/01 02:56:36;;;;;;;21.15;15.50;;;9.90;75.30;;;;;;5103998;28;27477;-57
2021/05/01 02:59:20;;;;;;;24.23;16.65;;;9.90;75.10;;;;;;5103771;28;27458;-58
2021/05/01 03:02:05;;;;;;;21.30;15.77;;;9.90;75.40;;;;;;5103370;27;27492;-58
2021/05/01 03:04:50;;;;;;;21.30;15.45;;;9.90;75.10;;;;;;5100531;28;27847;-58
2021/05/01 03:07:35;;;;;;;20.67;15.45;;;9.90;75.20;;;;;;5102899;28;27407;-58
2021/05/01 03:10:24;;;;;;;20.35;15.55;;;9.90;75.10;;;;;;5104194;28;27336;-58
2021/05/01 03:13:08;;;;;;;22.25;15.43;;;9.90;75.40;;;;;;5103828;28;27447;-59
2021/05/01 03:15:53;;;;;;;21.52;14.98;;;9.90;75.20;;;;;;5103754;28;27453;-58
2021/05/01 03:18:38;;;;;;;22.77;16.70;;;9.90;75.20;;;;;;5103792;28;27454;-58
2021/05/01 03:21:22;;;;;;;19.52;14.88;;;9.90;75.40;;;;;;5103865;28;27493;-59
2021/05/01 03:24:07;;;;;;;23.00;16.27;;;9.90;75.40;;;;;;5103909;28;27427;-58
2021/05/01 03:26:52;;;;;;;19.60;15.07;;;9.90;75.30;;;;;;5103098;28;27640;-57
2021/05/01 03:29:36;;;;;;;22.80;16.75;;;9.90;75.30;;;;;;5103546;28;27417;-58
2021/05/01 03:32:21;;;;;;;21.63;15.73;;;9.90;75.50;;;;;;5103775;28;27446;-57
2021/05/01 03:35:07;;;;;;;21.98;15.02;;;9.90;75.40;;;;;;5099494;28;27486;-58
2021/05/01 03:37:52;;;;;;;21.95;15.88;;;9.90;75.50;;;;;;5103510;28;27899;-58
2021/05/01 03:40:37;;;;;;;20.70;16.00;;;9.90;76.20;;;;;;5103179;28;27465;-58
2021/05/01 03:43:21;;;;;;;21.23;16.33;;;9.90;75.40;;;;;;5103318;28;27481;-57
2021/05/01 03:46:06;;;;;;;22.10;16.13;;;9.90;75.40;;;;;;5103518;28;27568;-58
2021/05/01 03:48:51;;;;;;;21.08;16.13;;;9.90;75.50;;;;;;5103322;28;27504;-57
2021/05/01 03:51:36;;;;;;;23.45;17.33;;;9.90;75.60;;;;;;5100230;28;27477;-58
2021/05/01 03:54:21;;;;;;;22.45;15.95;;;9.90;75.40;;;;;;5102978;28;27462;-58
2021/05/01 03:57:06;;;;;;;24.95;16.98;;;9.90;75.60;;;;;;5084627;28;27581;-58
2021/05/01 03:59:50;;;;;;;21.02;16.00;;;9.90;75.60;;;;;;5103391;28;27465;-57
2021/05/01 04:02:36;;;;;;;23.15;14.55;;;9.90;75.60;;;;;;5099146;28;27359;-59
2021/05/01 04:05:21;;;;;;;17.98;14.35;;;9.90;75.70;;;;;;5102992;28;27442;-59
2021/05/01 04:08:06;;;;;;;22.52;15.70;;;9.90;75.90;;;;;;5102975;28;27463;-57
2021/05/01 04:10:50;;;;;;;19.15;13.93;;;9.90;75.70;;;;;;5103034;28;27463;-58
2021/05/01 04:13:34;;;;;;;22.40;14.80;;;9.90;75.80;;;;;;5103756;27;27392;-64
2021/05/01 04:16:19;;;;;;;18.98;13.40;;;9.90;75.70;;;;;;5106988;28;27526;-58
2021/05/01 04:19:04;;;;;;;18.92;14.35;;;9.90;75.80;;;;;;5103331;28;27480;-58
2021/05/01 04:21:49;;;;;;;18.30;13.18;;;9.90;75.80;;;;;;5105704;28;27919;-58
2021/05/01 04:24:35;;;;;;;18.17;13.13;;;9.90;75.80;;;;;;5106152;28;27395;-60
2021/05/01 04:27:20;;;;;;;17.42;13.60;;;9.90;75.80;;;;;;5105653;28;27370;-58
2021/05/01 04:30:06;;;;;;;17.17;12.52;;;9.90;75.80;;;;;;5105300;28;27446;-58
2021/05/01 04:32:50;;;;;;;17.05;12.32;;;9.90;76.00;;;;;;5105273;28;27558;-57
2021/05/01 04:35:35;;;;;;;17.08;12.95;;;9.90;75.90;;;;;;5105213;28;27465;-58
2021/05/01 04:38:21;;;;;;;17.23;13.60;;;9.90;75.90;;;;;;5105367;28;27486;-57
2021/05/01 04:41:05;;;;;;;19.50;13.30;;;9.90;76.00;;;;;;5086736;28;27467;-59
2021/05/01 04:43:51;;;;;;;16.00;12.68;;;9.90;76.10;;;;;;5105268;28;27481;-58
2021/05/01 04:46:36;;;;;;;18.20;13.70;;;9.90;76.10;;;;;;5101256;28;27409;-58
2021/05/01 04:49:21;;;;;;;17.48;13.07;;;9.90;76.10;;;;;;5105050;28;27435;-58
2021/05/01 04:52:05;;;;;;;21.00;14.30;;;9.90;76.40;;;;;;5104843;28;27422;-58
2021/05/01 04:54:52;;;;;;;19.90;14.60;;;9.90;76.30;;;;;;5105089;28;27376;-58
2021/05/01 04:57:36;;;;;;;16.48;12.70;;;9.90;76.50;;;;;;5104196;28;27485;-57
2021/05/01 05:00:22;;;;;;;20.60;14.77;;;9.90;76.70;;;;;;5101101;28;27427;-57
2021/05/01 05:03:08;;;;;;;18.42;14.38;;;9.90;76.60;;;;;;5104910;28;27438;-57
2021/05/01 05:05:52;;;;;;;21.40;15.25;;;9.90;77.10;;;;;;5100689;28;27949;-58
2021/05/01 05:08:37;;;;;;;19.55;13.70;;;9.90;76.80;;;;;;5104480;28;27553;-58
2021/05/01 05:11:22;;;;;;;17.58;13.30;;;9.90;76.80;;;;;;5104794;28;27458;-58
2021/05/01 05:14:06;;;;;;;20.23;14.30;;;9.90;76.80;;;;;;5104278;28;27477;-57
2021/05/01 05:16:51;;;;;;;19.02;13.63;;;9.90;77.00;;;;;;5104399;28;27484;-58
2021/05/01 05:19:36;;;;;;;20.20;15.57;;;9.90;76.80;;;;;;5100311;28;27450;-58
2021/05/01 05:22:21;;;;;;;17.15;13.95;;;9.90;77.00;;;;;;5103599;28;26908;-59
2021/05/01 05:25:06;;;;;;;21.40;14.63;;;9.90;77.00;;;;;;5070136;27;949523;-59
2021/05/01 05:27:51;;;;;;;17.35;13.85;;;10.00;77.10;;;;;;5104619;28;27489;-64
2021/05/01 05:30:36;;;;;;;18.85;13.73;;;10.00;77.30;;;;;;5105281;28;27478;-58
2021/05/01 05:33:20;;;;;;;19.70;15.23;;;10.00;77.10;;;;;;5104523;28;27492;-58
2021/05/01 05:36:05;;;;;;;20.02;14.18;;;10.00;77.20;;;;;;5105578;28;27494;-63
2021/05/01 05:38:50;;;;;;;21.42;14.07;;;10.00;77.20;;;;;;5105574;28;27517;-63
2021/05/01 05:41:35;;;;;;;19.75;14.95;;;10.10;77.20;;;;;;5101121;28;27360;-64
2021/05/01 05:44:22;;;;;;;19.42;15.18;;;10.10;77.00;;;;;;5104240;28;27407;-63
2021/05/01 05:47:07;;;;;;;19.83;13.57;;;10.10;77.00;;;;;;5105400;28;27470;-64
2021/05/01 05:49:55;;;;;;;15.93;11.43;;;10.10;77.10;;;;;;5104659;28;27902;-64
2021/05/01 05:52:39;;;;;;;20.20;14.27;;;10.20;77.00;;;;;;5089852;28;27480;-63
2021/05/01 05:55:27;;;;;;;22.58;15.35;;;10.20;76.90;;;;;;5105070;28;27451;-64
2021/05/01 05:58:12;;;;;;;19.08;13.98;;;10.20;76.90;;;;;;5105068;28;27359;-63
2021/05/01 06:00:56;;;;;;;20.00;14.73;;;10.20;76.90;;;;;;5089753;28;27367;-64
2021/05/01 06:03:41;;;;;;;20.35;15.38;;;10.20;76.90;;;;;;5104999;28;27351;-64
2021/05/01 06:06:38;;;;;;;20.33;14.55;;;10.20;76.50;;;;;;5090191;28;27470;-64
2021/05/01 06:09:23;;;;;;;21.25;15.20;;;10.20;76.80;;;;;;5103549;28;26921;-64
2021/05/01 06:12:09;;;;;;;22.83;15.60;;;10.20;76.80;;;;;;5089988;28;27848;-64
2021/05/01 06:15:08;;;;;;;19.42;14.75;;;10.30;76.80;;;;;;5100699;28;27421;-65
2021/05/01 06:17:53;;;;;;;22.10;15.50;;;10.30;76.80;;;;;;5104709;28;27482;-64
2021/05/01 06:20:40;;;;;;;24.05;16.02;;;10.30;77.10;;;;;;5104595;28;27426;-64
2021/05/01 06:23:25;;;;;;;21.42;15.95;;;10.30;77.20;;;;;;5104581;28;27857;-64
2021/05/01 06:26:12;;;;;;;21.63;15.38;;;10.30;77.00;;;;;;5102234;28;27488;-64
2021/05/01 06:29:00;;;;;;;23.02;16.25;;;10.30;77.10;;;;;;5100166;28;27387;-64
2021/05/01 06:31:47;;;;;;;24.50;17.00;;;10.30;77.10;;;;;;5075260;28;27405;-63
2021/05/01 06:34:33;;;;;;;20.92;15.98;;;10.30;77.00;;;;;;5104586;28;27477;-64
2021/05/01 06:37:20;;;;;;;24.23;16.52;;;10.30;76.90;;;;;;5103007;27;27548;-64
2021/05/01 06:40:12;;;;;;;21.08;15.88;;;10.30;76.90;;;;;;5103769;28;27424;-64
2021/05/01 06:43:00;;;;;;;23.35;16.27;;;10.40;77.00;;;;;;5104354;28;27468;-64
2021/05/01 06:45:50;;;;;;;19.85;14.68;;;10.40;76.90;;;;;;5103492;28;27880;-63
2021/05/01 06:48:58;;;;;;;22.50;15.80;;;10.40;76.90;;;;;;5085367;28;27458;-65
2021/05/01 06:51:44;;;;;;;25.20;17.88;;;10.40;76.90;;;;;;5103322;28;27465;-58
2021/05/01 06:54:31;;;;;;;23.38;17.05;;;10.40;76.60;;;;;;5103458;28;27479;-63
2021/05/01 06:57:21;;;;;;;24.30;17.33;;;10.50;76.70;;;;;;5103925;28;27418;-58
2021/05/01 07:00:09;;;;;;;25.20;17.05;;;10.50;76.90;;;;;;5103822;28;27504;-58
2021/05/01 07:03:06;;;;;;;23.70;16.70;;;10.50;77.10;;;;;;5104375;28;27462;-59
2021/05/01 07:05:52;;;;;;;22.20;16.55;;;10.50;77.10;;;;;;5103868;28;27339;-58
2021/05/01 07:08:40;;;;;;;20.73;15.32;;;10.50;77.30;;;;;;5102624;28;27406;-59
2021/05/01 07:11:28;;;;;;;20.98;16.10;;;10.60;77.50;;;;;;5103726;28;27463;-59
2021/05/01 07:14:15;;;;;;;23.80;14.95;;;10.60;77.30;;;;;;5103129;28;27462;-58
2021/05/01 07:17:03;;;;;;;22.45;14.93;;;10.70;77.40;;;;;;5100770;28;27481;-58
2021/05/01 07:19:50;;;;;;;23.55;15.73;;;10.70;77.40;;;;;;5103759;28;27371;-60
2021/05/01 07:22:37;;;;;;;20.25;16.00;;;10.70;77.00;;;;;;5085435;28;27506;-59
2021/05/01 07:25:24;;;;;;;23.30;15.27;;;10.70;77.30;;;;;;5101941;28;28016;-58
2021/05/01 07:28:14;;;;;;;19.67;14.82;;;10.70;77.30;;;;;;5102889;28;27474;-59
2021/05/01 07:31:02;;;;;;;22.10;15.27;;;10.80;77.30;;;;;;5102951;28;27378;-58
2021/05/01 07:33:55;;;;;;;19.23;15.35;;;10.80;77.30;;;;;;5085161;28;27471;-58
2021/05/01 07:36:45;;;;;;;18.33;14.65;;;10.80;77.40;;;;;;5085257;28;27410;-59
2021/05/01 07:39:32;;;;;;;23.33;16.17;;;10.80;77.80;;;;;;5088728;28;27476;-59
2021/05/01 07:42:20;;;;;;;20.45;15.77;;;10.80;77.20;;;;;;5100150;28;27381;-59
2021/05/01 07:45:08;;;;;;;20.60;15.45;;;10.80;76.30;;;;;;5099413;28;27476;-59
2021/05/01 07:47:59;;;;;;;21.98;16.75;;;10.80;76.00;;;;;;5085988;28;27418;-60
2021/05/01 07:50:47;;;;;;;20.77;15.48;;;10.80;76.30;;;;;;5088704;28;27356;-58
2021/05/01 07:53:35;;;;;;;19.02;14.65;;;10.80;77.30;;;;;;5107009;28;27401;-57
2021/05/01 07:56:21;;;;;;;21.90;15.57;;;10.80;76.90;;;;;;5088906;28;27523;-58
2021/05/01 07:59:09;;;;;;;21.73;15.75;;;10.80;76.90;;;;;;5105255;28;27626;-58
2021/05/01 08:01:56;;;;;;;19.20;14.68;;;10.80;76.90;;;;;;5088784;28;27360;-58
2021/05/01 08:04:43;;;;;;;23.33;16.95;;;10.80;77.00;;;;;;5106222;28;28027;-58
2021/05/01 08:07:30;;;;;;;17.92;14.30;;;10.80;76.80;;;;;;5106094;28;27463;-59
2021/05/01 08:10:17;;;;;;;20.48;14.70;;;10.80;77.40;;;;;;5106812;28;27468;-59
2021/05/01 08:13:04;;;;;;;20.77;15.00;;;10.80;77.30;;;;;;5105989;28;27440;-58
2021/05/01 08:15:50;;;;;;;22.35;15.85;;;10.80;77.00;;;;;;5106506;28;27324;-59
2021/05/01 08:18:38;;;;;;;21.40;14.93;;;10.90;77.00;;;;;;5106613;28;27513;-60
2021/05/01 08:21:24;;;;;;;22.17;14.63;;;10.80;77.00;;;;;;5106168;28;27495;-59
2021/05/01 08:24:12;;;;;;;18.02;13.95;;;10.80;76.70;;;;;;5106570;28;27434;-63
2021/05/01 08:27:01;;;;;;;21.55;15.70;;;10.90;78.00;;;;;;5106553;28;27402;-58
2021/05/01 08:29:48;;;;;;;19.95;15.10;;;10.90;76.90;;;;;;5105647;28;27471;-59
2021/05/01 08:32:37;;;;;;;20.52;15.07;;;10.90;77.10;;;;;;5102980;28;27438;-60
2021/05/01 08:35:24;;;;;;;22.25;16.45;;;10.90;76.90;;;;;;5105729;28;27326;-59
2021/05/01 08:38:13;;;;;;;20.75;15.82;;;10.90;76.40;;;;;;5105990;28;27390;-58
2021/05/01 08:41:01;;;;;;;20.60;16.17;;;11.00;77.40;;;;;;5106150;28;27426;-58
2021/05/01 08:43:51;;;;;;;22.67;16.45;;;11.00;77.80;;;;;;5105725;28;27391;-59
2021/05/01 08:46:40;;;;;;;23.92;17.77;;;11.10;77.50;;;;;;5102100;28;27458;-58
2021/05/01 08:49:28;;;;;;;21.08;16.42;;;11.20;77.40;;;;;;5106033;28;27863;-59
2021/05/01 08:52:17;;;;;;;23.27;16.48;;;11.30;77.50;;;;;;5105451;28;27367;-59
2021/05/01 08:55:05;;;;;;;22.02;16.52;;;11.40;77.60;;;;;;5102993;28;27430;-59
2021/05/01 08:57:51;;;;;;;22.58;16.23;;;11.40;77.00;;;;;;5106114;28;27457;-59
2021/05/01 09:00:41;;;;;;;23.42;16.95;;;11.50;77.20;;;;;;5105203;28;27922;-58
2021/05/01 09:03:28;;;;;;;22.52;16.58;;;11.50;77.70;;;;;;5105689;28;27520;-58
2021/05/01 09:06:15;;;;;;;22.70;16.15;;;11.50;76.80;;;;;;5087710;28;27448;-59
2021/05/01 09:09:08;;;;;;;25.13;17.95;;;11.60;77.40;;;;;;5104764;28;27416;-59
2021/05/01 09:12:00;;;;;;;22.63;16.80;;;11.60;77.20;;;;;;5104752;28;27632;-58
2021/05/01 09:15:25;;;;;;;22.58;16.52;;;11.60;76.20;;;;;;5101425;28;27466;-60
2021/05/01 09:18:47;;;;;;;27.30;18.00;;;11.50;76.10;;;;;;5105873;28;27438;-59
2021/05/01 09:22:03;;;;;;;27.02;19.10;;;11.50;77.40;;;;;;5101792;28;27374;-59
2021/05/01 09:25:35;;;;;;;23.13;17.60;;;11.50;77.10;;;;;;5104802;28;28016;-59
2021/05/01 09:28:39;;;;;;;26.20;17.15;;;11.50;77.50;;;;;;5105604;28;27360;-58
2021/05/01 09:31:46;;;;;;;25.33;18.13;;;11.50;77.50;;;;;;5104866;28;27483;-59
2021/05/01 09:34:58;;;;;;;25.63;18.67;;;11.60;76.60;;;;;;5104481;28;27353;-59
2021/05/01 09:38:24;;;;;;;27.00;18.48;;;11.60;77.00;;;;;;5101296;28;27479;-58
2021/05/01 09:41:18;;;;;;;30.38;19.77;;;11.60;76.60;;;;;;5105085;28;27439;-59
2021/05/01 09:44:17;;;;;;;27.25;19.20;;;11.70;76.60;;;;;;5105291;28;27452;-58
2021/05/01 09:47:24;;;;;;;32.20;20.20;;;11.70;77.20;;;;;;5104517;28;27378;-59
2021/05/01 09:50:28;;;;;;;25.20;17.92;;;11.80;76.80;;;;;;5088951;28;27846;-59
2021/05/01 09:53:21;;;;;;;27.13;19.17;;;11.90;76.60;;;;;;5088192;28;27403;-60
2021/05/01 09:56:21;;;;;;;26.83;18.65;;;12.00;75.90;;;;;;5106335;28;27464;-59
2021/05/01 09:59:16;;;;;;;26.40;19.70;;;12.00;76.10;;;;;;5105355;28;27477;-60
2021/05/01 10:02:10;;;;;;;28.75;19.20;;;12.20;76.60;;;;;;5102118;28;27454;-59
2021/05/01 10:05:12;;;;;;;29.25;21.08;;;12.30;76.40;;;;;;5106204;28;27450;-59
2021/05/01 10:08:14;;;;;;;31.90;21.33;;;12.40;76.20;;;;;;5102044;28;27393;-60
2021/05/01 10:11:15;;;;;;;25.58;18.45;;;12.40;76.10;;;;;;5104977;27;27370;-59
2021/05/01 10:14:04;;;;;;;27.08;18.42;;;12.50;76.10;;;;;;5101748;28;27481;-58
2021/05/01 10:16:56;;;;;;;24.63;18.25;;;12.60;76.00;;;;;;5105207;28;27467;-59
2021/05/01 10:19:53;;;;;;;27.83;20.13;;;12.60;76.60;;;;;;5104957;28;27474;-58
2021/05/01 10:22:42;;;;;;;27.23;18.85;;;12.60;77.10;;;;;;5101567;28;27439;-58
2021/05/01 10:25:32;;;;;;;23.92;18.67;;;12.60;77.40;;;;;;5087979;28;27400;-58
2021/05/01 10:28:23;;;;;;;26.27;18.42;;;12.60;76.50;;;;;;5101445;28;27453;-59
2021/05/01 10:31:13;;;;;;;27.42;19.80;;;12.70;76.60;;;;;;5105407;28;27399;-60
2021/05/01 10:34:07;;;;;;;24.90;18.38;;;12.70;76.20;;;;;;5101655;28;27411;-59
2021/05/01 10:37:14;;;;;;;28.05;19.20;;;12.70;75.70;;;;;;5087181;28;27471;-63
2021/05/01 10:40:16;;;;;;;27.20;19.55;;;12.70;75.20;;;;;;5101171;28;27460;-58
2021/05/01 10:43:30;;;;;;;26.00;18.45;;;12.70;75.10;;;;;;5103510;28;27462;-58
2021/05/01 10:51:05;;;;;;;24.58;16.92;;;12.80;75.90;;;;;;5103512;28;27960;-58
2021/05/01 10:54:22;;;;;;;23.27;16.48;;;12.80;76.00;;;;;;5105074;28;27402;-59
2021/05/01 10:57:24;;;;;;;25.15;17.83;;;12.80;76.60;;;;;;5105369;28;27366;-59
2021/05/01 11:00:19;;;;;;;22.55;16.27;;;12.80;75.40;;;;;;5105173;28;27411;-60
2021/05/01 11:03:40;;;;;;;21.13;15.65;;;12.90;76.20;;;;;;5087961;28;27940;-65
2021/05/01 11:07:34;;;;;;;23.02;16.85;;;12.90;75.50;;;;;;5105016;28;27367;-66
2021/05/01 11:10:25;;;;;;;24.88;17.48;;;13.00;75.70;;;;;;5104401;28;27454;-58
2021/05/01 11:13:25;;;;;;;26.63;17.83;;;12.90;75.20;;;;;;5101051;28;27347;-58
2021/05/01 11:16:13;;;;;;;19.95;15.77;;;12.90;75.20;;;;;;5105029;28;27369;-58
2021/05/01 11:19:06;;;;;;;22.35;16.50;;;12.90;75.20;;;;;;5104935;28;27442;-58
2021/05/01 11:21:55;;;;;;;22.77;17.27;;;12.80;75.40;;;;;;5100889;28;27442;-57
2021/05/01 11:24:44;;;;;;;20.25;15.45;;;12.80;76.30;;;;;;5103349;28;27391;-58
2021/05/01 11:27:39;;;;;;;20.65;16.42;;;12.90;75.70;;;;;;5104813;28;27418;-57
2021/05/01 11:30:29;;;;;;;22.50;16.52;;;12.90;76.10;;;;;;5104826;28;27477;-58
2021/05/01 11:33:45;;;;;;;19.70;15.00;;;13.00;76.80;;;;;;5104637;28;27410;-58
2021/05/01 11:37:01;;;;;;;21.88;14.75;;;13.00;77.60;;;;;;5102171;28;27362;-57
2021/05/01 11:40:08;;;;;;;19.13;15.13;;;13.10;77.00;;;;;;5086421;28;27375;-59
2021/05/01 11:43:03;;;;;;;17.90;14.25;;;13.30;74.10;;;;;;5104469;28;27442;-58
2021/05/01 11:46:14;;;;;;;19.45;14.15;;;13.30;75.10;;;;;;5104808;28;27351;-58
2021/05/01 11:49:08;;;;;;;17.33;13.02;;;13.50;75.70;;;;;;5104122;28;27367;-59
2021/05/01 11:52:13;;;;;;;16.50;12.93;;;13.70;76.00;;;;;;5103611;28;27891;-58
2021/05/01 11:55:21;;;;;;;16.83;13.18;;;13.80;75.80;;;;;;5104281;28;27473;-60
2021/05/01 11:58:12;;;;;;;16.02;13.15;;;14.00;75.80;;;;;;5091927;28;27392;-59
2021/05/01 12:01:22;;;;;;;15.70;12.30;;;14.10;75.90;;;;;;5100228;28;27487;-59
2021/05/01 12:04:10;;;;;;;16.08;12.52;;;14.30;76.30;;;;;;5102990;28;27829;-58
2021/05/01 12:07:00;;;;;;;16.80;12.88;;;14.50;72.90;;;;;;5100403;28;27450;-58
2021/05/01 12:09:53;;;;;;;17.48;13.55;;;14.60;67.10;;;;;;5104452;28;27419;-58
2021/05/01 12:13:06;;;;;;;16.42;13.30;;;14.60;64.90;;;;;;5100390;28;27444;-58
2021/05/01 12:15:55;;;;;;;16.42;12.48;;;14.60;64.30;;;;;;5104298;28;27483;-58
2021/05/01 12:18:48;;;;;;;19.17;13.65;;;14.50;64.20;;;;;;5104042;28;27474;-58
2021/05/01 12:21:44;;;;;;;19.02;13.88;;;14.50;64.40;;;;;;5104157;28;27433;-59
2021/05/01 12:24:33;;;;;;;17.73;14.00;;;14.40;65.00;;;;;;5099646;28;27506;-62
2021/05/01 12:27:54;;;;;;;22.30;14.88;;;14.30;65.30;;;;;;5085749;28;27364;-58
2021/05/01 12:30:56;;;;;;;18.65;13.77;;;14.20;65.70;;;;;;5087621;28;27585;-58
2021/05/01 12:33:58;;;;;;;19.90;14.18;;;14.10;64.80;;;;;;5099889;28;27482;-66
2021/05/01 12:37:11;;;;;;;20.55;15.30;;;14.00;65.70;;;;;;5090427;28;27415;-58
2021/05/01 12:40:08;;;;;;;35.22;16.40;;;13.90;66.10;;;;;;5106840;28;27383;-57
2021/05/01 12:43:01;;;;;;;19.67;15.68;;;13.80;66.10;;;;;;5089276;28;27457;-58
2021/05/01 12:45:52;;;;;;;18.80;14.80;;;13.70;66.00;;;;;;5106561;28;27412;-58
2021/05/01 12:48:53;;;;;;;20.92;16.63;;;13.70;65.50;;;;;;5106959;28;27516;-57
2021/05/01 12:52:09;;;;;;;18.83;14.80;;;13.60;66.10;;;;;;5103386;28;27358;-57
2021/05/01 12:55:02;;;;;;;20.60;15.80;;;13.60;66.40;;;;;;5107026;28;27398;-57
2021/05/01 13:06:10;;;;;;;21.90;16.73;;;13.50;67.20;;;;;;5105376;28;27422;-59
2021/05/01 13:13:34;;;;;;;21.42;16.27;;;13.40;66.50;;;;;;5106916;28;27438;-58
2021/05/01 13:16:29;;;;;;;22.25;16.17;;;13.50;66.50;;;;;;5102720;28;27316;-58
2021/05/01 13:19:49;;;;;;;23.83;18.15;;;13.40;66.60;;;;;;5106668;28;27380;-59
2021/05/01 13:22:56;;;;;;;35.42;17.95;;;13.40;67.00;;;;;;5106572;28;27516;-59
2021/05/01 13:26:19;;;;;;;19.98;16.33;;;13.40;67.90;;;;;;5103985;28;27450;-58
2021/05/01 13:29:09;;;;;;;26.48;17.85;;;13.40;68.70;;;;;;5105799;28;27419;-58
2021/05/01 13:32:01;;;;;;;23.90;18.02;;;13.50;69.60;;;;;;5106743;28;27354;-59
2021/05/01 13:35:02;;;;;;;25.83;19.45;;;13.50;69.90;;;;;;5106378;28;27466;-60
2021/05/01 13:37:51;;;;;;;23.00;17.02;;;13.60;70.80;;;;;;5106375;28;27408;-59
2021/05/01 13:40:42;;;;;;;26.92;19.40;;;13.60;70.70;;;;;;5102210;28;27483;-60
2021/05/01 13:43:31;;;;;;;23.83;18.25;;;13.60;70.90;;;;;;5087979;28;27961;-59
2021/05/01 13:46:21;;;;;;;23.90;18.95;;;13.70;71.30;;;;;;5105301;27;27496;-59
2021/05/01 13:49:10;;;;;;;23.17;17.77;;;13.70;71.40;;;;;;5105114;28;27328;-59
2021/05/01 13:51:59;;;;;;;23.60;17.63;;;13.70;71.50;;;;;;5106045;28;27358;-60
2021/05/01 13:54:49;;;;;;;24.75;18.83;;;13.70;71.60;;;;;;5088325;28;27402;-59
2021/05/01 13:57:39;;;;;;;23.42;17.95;;;13.80;72.10;;;;;;5104981;28;27465;-58
2021/05/01 14:00:31;;;;;;;23.52;17.67;;;13.80;72.40;;;;;;5106244;28;27419;-59
2021/05/01 14:03:24;;;;;;;24.92;18.40;;;13.80;72.40;;;;;;5102675;28;27404;-59
2021/05/01 14:06:17;;;;;;;21.27;16.90;;;13.80;72.10;;;;;;5102629;28;27984;-60
2021/05/01 14:09:16;;;;;;;23.13;17.77;;;13.80;72.10;;;;;;5104820;28;27472;-58
2021/05/01 14:12:21;;;;;;;24.95;18.60;;;13.80;72.10;;;;;;5105935;28;27030;-59
2021/05/01 14:15:30;;;;;;;24.17;19.08;;;13.80;72.10;;;;;;5087696;28;27431;-59
2021/05/01 14:18:23;;;;;;;28.80;21.75;;;13.80;72.10;;;;;;5105069;28;27374;-58
2021/05/01 14:21:27;;;;;;;27.88;20.83;;;13.80;72.50;;;;;;5105285;28;27454;-58
2021/05/01 14:24:21;;;;;;;28.98;20.60;;;13.70;72.90;;;;;;5088558;28;27462;-58
2021/05/01 14:27:12;;;;;;;23.38;17.90;;;13.60;72.90;;;;;;5105532;28;27522;-59
2021/05/01 14:30:00;;;;;;;28.27;20.25;;;13.60;73.70;;;;;;5101698;28;27371;-58
2021/05/01 14:33:04;;;;;;;28.95;21.92;;;13.60;73.30;;;;;;5101743;28;27356;-67
2021/05/01 14:35:56;;;;;;;25.25;19.83;;;13.50;73.30;;;;;;5104852;28;27505;-59
2021/05/01 14:38:45;;;;;;;28.58;21.58;;;13.50;73.40;;;;;;5105795;28;27311;-65
2021/05/01 14:41:33;;;;;;;27.55;20.38;;;13.50;73.40;;;;;;5101696;28;27528;-60
2021/05/01 14:44:33;;;;;;;30.30;21.98;;;13.50;73.60;;;;;;5101566;28;27482;-60
2021/05/01 14:47:32;;;;;;;25.02;19.02;;;13.40;73.50;;;;;;5104222;28;27421;-60
2021/05/01 14:50:40;;;;;;;26.40;20.42;;;13.40;73.70;;;;;;5104557;28;27474;-61